Time;durP1;ratioP1;P1;durP2;ratioP2;P2;SDS_P1;SDS_P2;PMS_P1;PMS_P2;Temp;Humidity;BMP_temperature;BMP_pressure;BME280_temperature;BME280_humidity;BME280_pressure;Samples;Min_cycle;Max_cycle;Signal;HPM_P1;HPM_P2
2021/11/26 00:02:07;;;;;;;3.83;2.30;;;21.30;49.90;;;;;;5032271;28;20037;-54
2021/11/26 00:04:33;;;;;;;3.63;2.28;;;21.30;50.00;;;;;;5032942;28;20022;-59
2021/11/26 00:06:58;;;;;;;3.45;2.10;;;21.30;50.00;;;;;;5027211;28;20051;-59
2021/11/26 00:09:24;;;;;;;3.00;2.10;;;21.30;50.10;;;;;;5032157;28;20032;-59
2021/11/26 00:11:50;;;;;;;3.88;2.10;;;21.30;50.10;;;;;;5031760;28;20437;-59
2021/11/26 00:14:19;;;;;;;3.33;2.00;;;21.30;50.10;;;;;;5039638;28;20409;-59
2021/11/26 00:16:47;;;;;;;2.95;2.00;;;21.30;50.10;;;;;;5035883;28;20139;-54
2021/11/26 00:19:13;;;;;;;3.15;2.15;;;21.20;50.10;;;;;;5030691;28;20047;-56
2021/11/26 00:21:42;;;;;;;3.55;1.92;;;21.20;50.10;;;;;;5028227;28;20044;-59
2021/11/26 00:24:08;;;;;;;2.50;1.75;;;21.20;50.10;;;;;;5027039;28;20037;-56
2021/11/26 00:26:35;;;;;;;2.95;1.98;;;21.20;50.20;;;;;;5030845;28;20037;-56
2021/11/26 00:29:01;;;;;;;3.50;2.13;;;21.20;50.20;;;;;;5031414;28;20029;-59
2021/11/26 00:31:26;;;;;;;3.20;2.42;;;21.10;50.20;;;;;;5026261;28;20029;-58
2021/11/26 00:33:52;;;;;;;3.90;2.33;;;21.10;50.20;;;;;;5031040;28;20390;-56
2021/11/26 00:36:18;;;;;;;3.45;2.30;;;21.10;50.20;;;;;;5032593;28;20045;-58
2021/11/26 00:38:43;;;;;;;3.97;2.03;;;21.10;50.30;;;;;;5033483;28;20025;-59
2021/11/26 00:41:09;;;;;;;2.75;1.90;;;21.10;50.30;;;;;;5030214;28;20034;-59
2021/11/26 00:43:35;;;;;;;3.22;2.00;;;21.10;50.30;;;;;;5029270;28;20642;-58
2021/11/26 00:46:01;;;;;;;2.80;1.90;;;21.00;50.30;;;;;;5034449;28;20048;-59
2021/11/26 00:48:26;;;;;;;3.00;2.00;;;21.00;50.40;;;;;;5033613;28;20037;-58
2021/11/26 00:50:52;;;;;;;3.40;2.00;;;21.00;50.30;;;;;;5035160;28;20481;-58
2021/11/26 00:53:18;;;;;;;2.80;1.90;;;21.00;50.40;;;;;;5030737;28;20113;-58
2021/11/26 00:55:43;;;;;;;2.53;1.80;;;21.00;50.40;;;;;;5026547;28;20087;-59
2021/11/26 00:58:09;;;;;;;3.13;1.77;;;21.00;50.40;;;;;;5028333;28;20034;-59
2021/11/26 01:00:36;;;;;;;3.17;2.00;;;21.00;50.40;;;;;;5032636;28;20036;-57
2021/11/26 01:03:05;;;;;;;2.90;1.80;;;20.90;50.40;;;;;;5030377;28;20045;-59
2021/11/26 01:05:31;;;;;;;;;;;20.90;50.40;;;;;;5033099;28;20103;-59
2021/11/26 01:07:57;;;;;;;3.13;1.92;;;20.90;50.40;;;;;;5035090;28;20317;-54
2021/11/26 01:10:24;;;;;;;3.58;1.90;;;20.90;50.40;;;;;;5025746;28;20053;-58
2021/11/26 01:12:51;;;;;;;2.80;1.90;;;20.80;50.40;;;;;;5031326;28;20025;-55
2021/11/26 01:15:20;;;;;;;3.03;1.90;;;20.80;50.50;;;;;;5028367;28;20029;-57
2021/11/26 01:17:48;;;;;;;;;;;20.80;50.60;;;;;;5039365;28;20897;-57
2021/11/26 01:20:17;;;;;;;2.90;1.70;;;20.80;50.50;;;;;;5026198;28;20418;-59
2021/11/26 01:22:43;;;;;;;3.10;2.08;;;20.80;50.50;;;;;;5032205;28;20041;-55
2021/11/26 01:25:11;;;;;;;3.20;1.80;;;20.80;50.50;;;;;;5032751;28;20048;-58
2021/11/26 01:27:37;;;;;;;2.90;1.80;;;20.80;50.60;;;;;;5038440;28;20120;-59
2021/11/26 01:30:13;;;;;;;3.10;1.90;;;20.80;50.60;;;;;;5035570;28;20025;-56
2021/11/26 01:32:39;;;;;;;3.55;1.90;;;20.80;50.60;;;;;;5040926;28;20049;-58
2021/11/26 01:35:06;;;;;;;3.42;2.08;;;20.70;50.60;;;;;;5038387;28;20021;-56
2021/11/26 01:37:31;;;;;;;3.05;2.00;;;20.80;50.60;;;;;;5037916;28;20017;-59
2021/11/26 01:39:57;;;;;;;3.63;1.70;;;20.70;50.60;;;;;;5035394;28;20048;-58
2021/11/26 01:42:23;;;;;;;3.67;1.90;;;20.70;50.60;;;;;;5034147;28;20036;-56
2021/11/26 01:44:48;;;;;;;3.45;2.08;;;20.70;50.70;;;;;;5034738;28;20021;-59
2021/11/26 01:47:15;;;;;;;2.78;1.77;;;20.70;50.60;;;;;;5036440;28;20819;-58
2021/11/26 01:49:40;;;;;;;3.42;2.10;;;20.70;50.70;;;;;;5036920;28;21540;-55
2021/11/26 01:52:07;;;;;;;2.97;1.98;;;20.60;50.60;;;;;;5034069;28;20228;-53
2021/11/26 01:54:33;;;;;;;2.80;1.85;;;20.60;50.70;;;;;;5035889;28;20078;-58
2021/11/26 01:56:58;;;;;;;3.10;1.67;;;20.60;50.70;;;;;;5035329;28;20029;-58
2021/11/26 01:59:24;;;;;;;3.05;1.70;;;20.60;50.70;;;;;;5035645;28;20025;-55
2021/11/26 02:01:49;;;;;;;2.47;1.70;;;20.60;50.70;;;;;;5042495;28;20042;-59
2021/11/26 02:04:15;;;;;;;2.55;1.70;;;20.60;50.80;;;;;;5031943;28;20033;-56
2021/11/26 02:06:41;;;;;;;2.47;1.70;;;20.60;50.80;;;;;;5038356;28;20409;-59
2021/11/26 02:09:07;;;;;;;3.28;2.10;;;20.60;50.80;;;;;;5033838;28;20041;-59
2021/11/26 02:11:33;;;;;;;2.55;1.70;;;20.60;50.80;;;;;;5031360;28;20071;-59
2021/11/26 02:13:58;;;;;;;2.90;1.80;;;20.60;50.80;;;;;;5036657;28;20037;-58
2021/11/26 02:16:24;;;;;;;2.67;1.80;;;20.50;50.80;;;;;;5036096;28;20337;-59
2021/11/26 02:18:50;;;;;;;3.35;1.83;;;20.50;50.80;;;;;;5036133;28;20088;-57
2021/11/26 02:21:21;;;;;;;2.70;1.67;;;20.50;50.80;;;;;;5033518;28;20764;-55
2021/11/26 02:23:48;;;;;;;2.80;1.85;;;20.50;50.80;;;;;;5031075;28;20144;-59
2021/11/26 02:26:13;;;;;;;2.35;1.65;;;20.50;50.90;;;;;;5029572;28;20543;-51
2021/11/26 02:28:41;;;;;;;3.42;2.03;;;20.50;50.90;;;;;;5033497;28;20037;-56
2021/11/26 02:31:06;;;;;;;2.90;1.80;;;20.50;50.90;;;;;;5036647;28;20040;-58
2021/11/26 02:33:32;;;;;;;2.50;1.80;;;20.40;50.90;;;;;;5033362;28;20028;-56
2021/11/26 02:35:58;;;;;;;2.80;1.77;;;20.40;50.90;;;;;;5033947;28;20100;-54
2021/11/26 02:38:25;;;;;;;2.60;1.70;;;20.50;50.90;;;;;;5038449;28;20025;-57
2021/11/26 02:40:52;;;;;;;2.42;1.80;;;20.40;50.90;;;;;;5035326;28;20446;-59
2021/11/26 02:43:18;;;;;;;2.70;1.70;;;20.40;50.90;;;;;;5033538;28;20034;-58
2021/11/26 02:45:45;;;;;;;2.50;1.60;;;20.40;50.90;;;;;;5030212;28;20485;-58
2021/11/26 02:48:13;;;;;;;2.20;1.55;;;20.40;50.90;;;;;;5036493;28;20037;-57
2021/11/26 02:50:39;;;;;;;2.47;1.65;;;20.40;51.00;;;;;;5037148;28;20025;-59
2021/11/26 02:53:06;;;;;;;2.42;1.70;;;20.40;51.00;;;;;;5035679;28;20063;-57
2021/11/26 02:55:33;;;;;;;3.97;1.80;;;20.40;51.00;;;;;;5030396;28;20091;-58
2021/11/26 02:58:00;;;;;;;3.00;1.77;;;20.40;51.00;;;;;;5032335;28;20063;-59
2021/11/26 03:00:28;;;;;;;2.35;1.80;;;20.40;51.00;;;;;;5036235;28;20067;-59
2021/11/26 03:02:55;;;;;;;2.72;1.70;;;20.40;51.00;;;;;;5032419;28;20037;-59
2021/11/26 03:05:21;;;;;;;2.30;1.55;;;20.40;51.00;;;;;;5035692;28;20035;-59
2021/11/26 03:07:47;;;;;;;2.55;1.70;;;20.40;51.00;;;;;;5030549;28;20033;-59
2021/11/26 03:10:18;;;;;;;2.72;1.73;;;20.40;51.00;;;;;;5030306;28;20028;-58
2021/11/26 03:12:50;;;;;;;2.47;1.60;;;20.40;51.10;;;;;;5035269;28;20047;-56
2021/11/26 03:15:17;;;;;;;2.83;1.70;;;20.30;51.00;;;;;;5028915;28;20389;-59
2021/11/26 03:17:43;;;;;;;2.30;1.60;;;20.30;51.00;;;;;;5034729;28;20079;-59
2021/11/26 03:20:09;;;;;;;2.30;1.70;;;20.30;51.00;;;;;;5031463;28;20022;-59
2021/11/26 03:22:35;;;;;;;2.05;1.50;;;20.30;51.00;;;;;;5032240;28;20044;-58
2021/11/26 03:25:02;;;;;;;2.85;1.80;;;20.30;51.00;;;;;;5037169;28;20110;-59
2021/11/26 03:27:28;;;;;;;2.08;1.58;;;20.30;51.00;;;;;;5035484;28;20864;-58
2021/11/26 03:29:54;;;;;;;2.75;1.77;;;20.30;51.00;;;;;;5030724;28;20355;-49
2021/11/26 03:32:19;;;;;;;2.60;1.70;;;20.30;51.00;;;;;;5030680;28;20129;-58
2021/11/26 03:34:45;;;;;;;2.40;1.60;;;20.30;51.10;;;;;;5034897;28;20428;-59
2021/11/26 03:37:11;;;;;;;2.72;1.70;;;20.30;51.00;;;;;;5031706;28;20104;-56
2021/11/26 03:39:36;;;;;;;3.35;1.70;;;20.30;51.10;;;;;;5032322;28;20109;-59
2021/11/26 03:42:02;;;;;;;2.88;1.73;;;20.30;51.10;;;;;;5035094;28;20120;-57
2021/11/26 03:44:28;;;;;;;2.40;1.70;;;20.30;51.10;;;;;;5036864;28;20033;-58
2021/11/26 03:46:54;;;;;;;2.67;1.70;;;20.30;51.10;;;;;;5035679;28;20363;-57
2021/11/26 03:49:19;;;;;;;2.72;1.80;;;20.30;51.10;;;;;;5033367;28;20025;-58
2021/11/26 03:51:45;;;;;;;2.40;1.60;;;20.30;51.10;;;;;;5033905;28;20107;-53
2021/11/26 03:54:11;;;;;;;2.05;1.42;;;20.30;51.10;;;;;;5030179;28;22167;-58
2021/11/26 03:56:36;;;;;;;2.72;1.70;;;20.20;51.10;;;;;;5026969;28;20128;-58
2021/11/26 03:59:05;;;;;;;2.65;1.70;;;20.20;51.10;;;;;;5031963;28;20032;-59
2021/11/26 04:01:31;;;;;;;2.20;1.50;;;20.20;51.10;;;;;;5033456;28;20394;-57
2021/11/26 04:03:57;;;;;;;2.42;1.60;;;20.20;51.10;;;;;;5030455;28;20044;-57
2021/11/26 04:06:22;;;;;;;2.58;1.77;;;20.20;51.10;;;;;;5032064;28;20370;-59
2021/11/26 04:08:48;;;;;;;2.53;1.52;;;20.20;51.10;;;;;;5027131;28;20033;-58
2021/11/26 04:11:14;;;;;;;2.20;1.50;;;20.20;51.10;;;;;;5031945;28;20372;-58
2021/11/26 04:13:39;;;;;;;1.80;1.40;;;20.20;51.20;;;;;;5030183;28;20041;-57
2021/11/26 04:16:12;;;;;;;2.90;1.67;;;20.20;51.20;;;;;;5035970;28;20075;-57
2021/11/26 04:18:37;;;;;;;1.77;1.20;;;20.20;51.20;;;;;;5032336;28;20029;-58
2021/11/26 04:21:03;;;;;;;2.28;1.60;;;20.20;51.20;;;;;;5031975;28;20378;-59
2021/11/26 04:23:30;;;;;;;2.42;1.60;;;20.20;51.70;;;;;;5032586;28;20087;-57
2021/11/26 04:25:56;;;;;;;2.33;1.38;;;20.20;51.20;;;;;;5029335;28;20032;-56
2021/11/26 04:28:22;;;;;;;2.33;1.60;;;20.20;51.30;;;;;;5035702;28;20115;-58
2021/11/26 04:30:48;;;;;;;2.03;1.40;;;20.10;51.20;;;;;;5030088;28;20037;-58
2021/11/26 04:33:13;;;;;;;2.33;1.55;;;20.10;51.20;;;;;;5029193;28;20039;-59
2021/11/26 04:35:39;;;;;;;2.30;1.40;;;20.10;51.20;;;;;;5032068;28;20139;-58
2021/11/26 04:38:04;;;;;;;2.50;1.60;;;20.10;51.20;;;;;;5031430;28;20790;-52
2021/11/26 04:40:30;;;;;;;2.08;1.50;;;20.10;51.30;;;;;;5024963;28;20033;-57
2021/11/26 04:42:56;;;;;;;2.50;1.50;;;20.10;51.30;;;;;;5031931;28;20090;-58
2021/11/26 04:45:21;;;;;;;2.33;1.50;;;20.10;51.30;;;;;;5031793;28;20029;-56
2021/11/26 04:47:47;;;;;;;2.35;1.70;;;20.10;51.30;;;;;;5033526;28;20797;-58
2021/11/26 04:50:15;;;;;;;2.50;1.60;;;20.10;51.40;;;;;;5033894;28;20487;-59
2021/11/26 04:52:41;;;;;;;2.10;1.40;;;20.10;51.40;;;;;;5031437;28;20071;-54
2021/11/26 04:55:09;;;;;;;2.03;1.38;;;20.10;51.90;;;;;;5029487;28;20057;-58
2021/11/26 04:57:35;;;;;;;2.70;1.50;;;20.10;51.40;;;;;;5029554;28;20136;-58
2021/11/26 05:00:01;;;;;;;2.53;1.40;;;20.10;51.90;;;;;;5027600;28;20152;-58
2021/11/26 05:02:27;;;;;;;2.55;1.70;;;20.00;51.40;;;;;;5029955;28;20087;-57
2021/11/26 05:04:53;;;;;;;2.05;1.40;;;20.00;51.40;;;;;;5032212;28;20025;-59
2021/11/26 05:07:20;;;;;;;2.10;1.40;;;20.00;51.40;;;;;;5032753;28;20086;-59
2021/11/26 05:09:47;;;;;;;2.10;1.40;;;20.00;51.40;;;;;;5030876;28;20667;-58
2021/11/26 05:12:13;;;;;;;2.47;1.63;;;20.00;51.50;;;;;;5031259;28;20025;-57
2021/11/26 05:14:39;;;;;;;2.15;1.50;;;20.00;51.50;;;;;;5032825;28;20074;-58
2021/11/26 05:17:05;;;;;;;2.15;1.38;;;20.00;51.50;;;;;;5030531;28;20029;-59
2021/11/26 05:19:30;;;;;;;2.25;1.50;;;20.10;51.50;;;;;;5034280;28;20032;-58
2021/11/26 05:21:56;;;;;;;1.70;1.30;;;20.00;51.50;;;;;;5030814;28;20042;-57
2021/11/26 05:24:22;;;;;;;1.77;1.30;;;20.00;51.50;;;;;;5032842;28;20041;-58
2021/11/26 05:26:47;;;;;;;2.17;1.40;;;20.00;51.50;;;;;;5028930;28;20026;-57
2021/11/26 05:29:13;;;;;;;2.33;1.40;;;20.00;51.50;;;;;;5033972;28;20421;-57
2021/11/26 05:31:38;;;;;;;1.80;1.35;;;20.00;51.60;;;;;;5034002;28;20402;-58
2021/11/26 05:34:06;;;;;;;1.95;1.40;;;20.00;51.60;;;;;;5034198;28;20030;-53
2021/11/26 05:36:32;;;;;;;2.20;1.50;;;20.00;51.60;;;;;;5033142;28;20064;-60
2021/11/26 05:38:58;;;;;;;2.30;1.40;;;20.00;51.60;;;;;;5033761;28;20049;-58
2021/11/26 05:41:24;;;;;;;2.50;1.35;;;20.00;51.60;;;;;;5026871;28;20033;-58
2021/11/26 05:43:50;;;;;;;2.00;1.40;;;20.00;51.60;;;;;;5028439;28;20033;-58
2021/11/26 05:46:16;;;;;;;2.25;1.60;;;19.90;51.60;;;;;;5028035;28;20045;-56
2021/11/26 05:48:42;;;;;;;1.95;1.35;;;20.00;51.60;;;;;;5027244;28;20484;-55
2021/11/26 05:51:10;;;;;;;1.58;1.15;;;20.00;51.70;;;;;;5031992;28;20032;-57
2021/11/26 05:53:35;;;;;;;2.45;1.35;;;20.00;51.70;;;;;;5031135;28;20033;-59
2021/11/26 05:56:01;;;;;;;2.38;1.60;;;19.90;51.70;;;;;;5031304;28;20385;-59
2021/11/26 05:58:27;;;;;;;1.90;1.30;;;19.90;51.70;;;;;;5027111;28;20040;-56
2021/11/26 06:00:54;;;;;;;2.38;1.50;;;19.90;51.70;;;;;;5030295;28;20038;-59
2021/11/26 06:03:19;;;;;;;1.80;1.25;;;19.90;51.70;;;;;;5029047;28;20109;-58
2021/11/26 06:05:45;;;;;;;1.85;1.35;;;19.90;51.70;;;;;;5032161;28;20080;-58
2021/11/26 06:08:11;;;;;;;2.20;1.50;;;19.90;51.80;;;;;;5034266;28;20037;-59
2021/11/26 06:10:36;;;;;;;2.22;1.48;;;19.90;51.80;;;;;;5028792;28;20136;-59
2021/11/26 06:13:02;;;;;;;1.95;1.38;;;19.90;51.80;;;;;;5030600;28;20025;-56
2021/11/26 06:15:28;;;;;;;2.08;1.30;;;19.90;51.80;;;;;;5036156;28;20025;-58
2021/11/26 06:17:54;;;;;;;2.00;1.30;;;20.00;52.60;;;;;;5034305;28;20033;-52
2021/11/26 06:20:21;;;;;;;2.20;1.52;;;20.20;52.20;;;;;;5036872;28;20040;-58
2021/11/26 06:22:47;;;;;;;2.08;1.40;;;20.30;52.00;;;;;;5034343;28;20152;-58
2021/11/26 06:25:16;;;;;;;2.22;1.52;;;20.50;51.80;;;;;;5036770;28;20814;-56
2021/11/26 06:27:43;;;;;;;2.60;1.70;;;20.70;51.60;;;;;;5038115;28;20025;-59
2021/11/26 06:30:11;;;;;;;2.30;1.70;;;20.90;51.40;;;;;;5037978;28;20124;-54
2021/11/26 06:32:42;;;;;;;1.70;1.20;;;21.10;51.10;;;;;;5031641;28;20061;-58
2021/11/26 06:35:09;;;;;;;2.15;1.33;;;21.30;50.70;;;;;;5034112;28;20025;-59
2021/11/26 06:37:35;;;;;;;2.10;1.40;;;21.50;50.20;;;;;;5038754;28;20049;-58
2021/11/26 06:40:02;;;;;;;2.55;1.45;;;21.70;49.90;;;;;;5029059;28;20033;-59
2021/11/26 06:42:28;;;;;;;2.58;1.60;;;21.90;49.50;;;;;;5037210;28;20055;-59
2021/11/26 06:44:54;;;;;;;2.83;1.60;;;22.10;49.20;;;;;;5030532;28;20442;-56
2021/11/26 06:47:22;;;;;;;2.00;1.50;;;22.30;49.10;;;;;;5035973;28;20033;-58
2021/11/26 06:49:48;;;;;;;2.38;1.42;;;22.50;48.80;;;;;;5036754;28;20136;-59
2021/11/26 06:52:19;;;;;;;2.22;1.58;;;22.70;48.40;;;;;;5035888;28;20070;-59
2021/11/26 06:54:47;;;;;;;2.63;1.80;;;22.80;48.20;;;;;;5031917;28;20037;-59
2021/11/26 06:57:12;;;;;;;3.05;1.90;;;22.90;47.80;;;;;;5037156;28;20771;-59
2021/11/26 06:59:38;;;;;;;2.65;1.90;;;23.00;47.90;;;;;;5031742;28;20079;-58
2021/11/26 07:02:05;;;;;;;3.28;2.00;;;23.10;47.20;;;;;;5035151;28;20033;-57
2021/11/26 07:04:30;;;;;;;2.70;1.90;;;23.20;47.10;;;;;;5038407;28;20021;-59
2021/11/26 07:06:56;;;;;;;2.72;1.90;;;23.30;47.00;;;;;;5033101;28;20488;-59
2021/11/26 07:09:22;;;;;;;2.47;1.88;;;23.40;46.80;;;;;;5034473;28;20118;-59
2021/11/26 07:11:47;;;;;;;2.50;1.80;;;23.40;46.60;;;;;;5029378;28;20709;-59
2021/11/26 07:14:13;;;;;;;2.58;1.80;;;23.40;46.40;;;;;;5030042;28;20048;-56
2021/11/26 07:16:38;;;;;;;2.67;1.80;;;23.40;46.40;;;;;;5031580;28;20029;-59
2021/11/26 07:19:04;;;;;;;2.70;1.80;;;23.40;46.60;;;;;;5031868;28;20060;-59
2021/11/26 07:21:30;;;;;;;2.65;1.75;;;23.40;46.40;;;;;;5031673;28;20025;-58
2021/11/26 07:23:56;;;;;;;2.50;1.67;;;23.30;46.30;;;;;;5030906;28;20036;-57
2021/11/26 07:26:23;;;;;;;3.33;1.88;;;23.30;46.30;;;;;;5038971;28;20031;-58
2021/11/26 07:28:49;;;;;;;2.97;1.77;;;23.30;46.40;;;;;;5034554;28;20029;-59
2021/11/26 07:31:16;;;;;;;3.25;1.83;;;23.30;46.50;;;;;;5031323;28;20123;-59
2021/11/26 07:33:41;;;;;;;2.17;1.67;;;23.30;46.60;;;;;;5034097;28;20136;-59
2021/11/26 07:36:07;;;;;;;2.40;1.70;;;23.30;46.60;;;;;;5034158;28;20105;-57
2021/11/26 07:38:34;;;;;;;2.60;1.70;;;23.30;46.50;;;;;;5030395;28;20159;-59
2021/11/26 07:41:03;;;;;;;2.35;1.60;;;23.20;46.50;;;;;;5035032;28;20134;-59
2021/11/26 07:43:29;;;;;;;2.85;1.75;;;23.20;46.50;;;;;;5034785;28;20072;-57
2021/11/26 07:45:55;;;;;;;2.58;1.60;;;23.20;46.60;;;;;;5031265;28;20485;-59
2021/11/26 07:48:21;;;;;;;2.53;1.70;;;23.20;46.70;;;;;;5033265;28;20358;-59
2021/11/26 07:50:47;;;;;;;1.63;1.30;;;23.20;46.70;;;;;;5028879;28;20039;-58
2021/11/26 07:53:12;;;;;;;3.17;1.90;;;23.20;46.80;;;;;;5032609;28;20044;-57
2021/11/26 07:55:38;;;;;;;2.67;1.70;;;23.10;46.80;;;;;;5033273;28;20719;-58
2021/11/26 07:58:06;;;;;;;2.20;1.50;;;23.10;46.80;;;;;;5035698;28;20497;-57
2021/11/26 08:00:32;;;;;;;3.08;1.92;;;23.10;46.80;;;;;;5032026;28;20024;-59
2021/11/26 08:03:01;;;;;;;2.33;1.52;;;23.10;46.80;;;;;;5031157;28;20343;-59
2021/11/26 08:05:28;;;;;;;3.80;1.80;;;23.10;46.90;;;;;;5034412;28;20025;-58
2021/11/26 08:07:54;;;;;;;2.70;1.80;;;23.10;47.00;;;;;;5038776;28;20041;-59
2021/11/26 08:10:20;;;;;;;2.40;1.70;;;23.10;46.70;;;;;;5029916;28;20037;-58
2021/11/26 08:12:45;;;;;;;2.45;1.80;;;23.10;46.80;;;;;;5031643;28;20116;-59
2021/11/26 08:15:13;;;;;;;2.55;1.90;;;23.10;46.90;;;;;;5032806;28;20545;-58
2021/11/26 08:17:39;;;;;;;2.63;1.77;;;23.10;47.00;;;;;;5040438;28;20036;-59
2021/11/26 08:20:05;;;;;;;2.65;1.63;;;23.00;46.80;;;;;;5029904;28;20037;-59
2021/11/26 08:22:31;;;;;;;2.33;1.55;;;23.00;46.90;;;;;;5032246;28;20484;-58
2021/11/26 08:24:57;;;;;;;3.42;1.80;;;23.00;46.90;;;;;;5032750;28;20036;-59
2021/11/26 08:27:22;;;;;;;2.38;1.60;;;23.00;47.00;;;;;;5030193;28;20389;-60
2021/11/26 08:29:48;;;;;;;3.65;1.83;;;23.00;47.10;;;;;;5028111;28;20151;-59
2021/11/26 08:32:14;;;;;;;2.38;1.70;;;23.00;47.10;;;;;;5027302;28;20029;-59
2021/11/26 08:34:40;;;;;;;5.65;3.90;;;23.00;47.20;;;;;;5033791;28;20036;-58
2021/11/26 08:37:05;;;;;;;5.40;3.25;;;22.90;46.20;;;;;;5029686;28;20028;-58
2021/11/26 08:39:31;;;;;;;4.78;2.40;;;22.90;46.40;;;;;;5027543;28;20039;-52
2021/11/26 08:41:57;;;;;;;5.03;2.10;;;22.90;46.80;;;;;;5034108;28;20059;-58
2021/11/26 08:44:22;;;;;;;3.30;1.90;;;22.80;47.00;;;;;;5027683;28;20028;-58
2021/11/26 08:46:48;;;;;;;3.17;1.90;;;22.80;47.30;;;;;;5033520;28;20632;-58
2021/11/26 08:49:14;;;;;;;3.20;2.08;;;22.80;47.20;;;;;;5030524;28;20188;-59
2021/11/26 08:51:42;;;;;;;3.50;2.10;;;22.80;47.20;;;;;;5034408;28;20024;-59
2021/11/26 08:54:08;;;;;;;3.13;1.90;;;22.80;47.10;;;;;;5033697;28;20509;-59
2021/11/26 08:56:33;;;;;;;3.20;1.98;;;22.80;47.20;;;;;;5031285;28;20063;-57
2021/11/26 08:59:01;;;;;;;3.03;2.10;;;22.80;47.10;;;;;;5028755;28;20033;-57
2021/11/26 09:01:31;;;;;;;2.90;2.00;;;22.80;47.10;;;;;;5031746;28;20033;-59
2021/11/26 09:03:57;;;;;;;2.53;1.75;;;22.80;47.20;;;;;;5029820;28;20033;-59
2021/11/26 09:06:24;;;;;;;2.67;1.80;;;22.80;47.40;;;;;;5027867;28;20025;-59
2021/11/26 09:08:50;;;;;;;2.85;2.00;;;22.80;47.20;;;;;;5031083;28;20044;-59
2021/11/26 09:11:16;;;;;;;3.95;2.42;;;22.80;47.30;;;;;;5036543;28;20030;-59
2021/11/26 09:13:43;;;;;;;4.25;2.90;;;22.80;47.10;;;;;;5031100;28;20030;-59
2021/11/26 09:16:09;;;;;;;5.00;3.20;;;22.70;46.80;;;;;;5030914;28;20025;-58
2021/11/26 09:18:35;;;;;;;3.92;2.83;;;22.70;46.40;;;;;;5032366;28;20502;-58
2021/11/26 09:21:01;;;;;;;4.50;3.00;;;22.70;46.40;;;;;;5031831;28;20036;-59
2021/11/26 09:23:27;;;;;;;4.97;3.00;;;22.70;47.20;;;;;;5029089;28;20063;-56
2021/11/26 09:25:53;;;;;;;4.07;2.70;;;22.70;46.60;;;;;;5027852;28;20101;-59
2021/11/26 09:28:19;;;;;;;4.07;2.80;;;22.70;46.40;;;;;;5034221;28;20036;-59
2021/11/26 09:30:47;;;;;;;4.40;2.80;;;22.70;46.50;;;;;;5032585;28;20030;-57
2021/11/26 09:33:14;;;;;;;6.00;3.08;;;22.70;46.50;;;;;;5028048;28;20053;-53
2021/11/26 09:35:39;;;;;;;3.85;2.80;;;22.70;46.60;;;;;;5033676;28;20029;-59
2021/11/26 09:38:05;;;;;;;4.05;2.70;;;22.70;46.60;;;;;;5030374;28;20100;-59
2021/11/26 09:40:32;;;;;;;3.92;2.60;;;22.60;46.60;;;;;;5030445;28;20540;-58
2021/11/26 09:43:00;;;;;;;3.85;2.60;;;22.70;46.70;;;;;;5033386;28;20029;-58
2021/11/26 09:45:27;;;;;;;4.00;2.70;;;22.70;46.60;;;;;;5028693;28;20055;-59
2021/11/26 09:47:53;;;;;;;3.85;2.58;;;22.70;46.70;;;;;;5035694;28;20025;-58
2021/11/26 09:50:22;;;;;;;5.88;2.90;;;22.70;46.70;;;;;;5034521;28;20030;-58
2021/11/26 09:52:47;;;;;;;4.75;2.38;;;22.60;47.20;;;;;;5036973;28;20117;-59
2021/11/26 09:55:17;;;;;;;4.18;2.67;;;22.60;46.70;;;;;;5027835;28;20037;-59
2021/11/26 09:57:44;;;;;;;3.35;2.58;;;22.60;46.70;;;;;;5035334;28;20037;-59
2021/11/26 10:00:13;;;;;;;4.47;2.50;;;22.60;46.70;;;;;;5032496;28;20443;-57
2021/11/26 10:02:54;;;;;;;4.25;2.83;;;22.60;46.80;;;;;;5033351;28;20065;-56
2021/11/26 10:05:20;;;;;;;3.75;2.72;;;22.60;46.70;;;;;;5037992;28;20036;-59
2021/11/26 10:07:51;;;;;;;3.45;2.35;;;22.60;46.70;;;;;;5036870;28;20025;-60
2021/11/26 10:10:27;;;;;;;3.55;2.60;;;22.60;46.90;;;;;;5031550;28;20095;-53
2021/11/26 10:13:09;;;;;;;3.53;2.70;;;22.60;46.80;;;;;;5037863;28;20446;-58
2021/11/26 10:15:44;;;;;;;3.55;2.50;;;22.60;46.70;;;;;;5035115;28;20351;-60
2021/11/26 10:18:20;;;;;;;3.83;2.60;;;22.60;46.80;;;;;;5036718;28;20057;-57
2021/11/26 10:21:09;;;;;;;3.67;2.67;;;22.60;46.80;;;;;;5034294;28;20030;-55
2021/11/26 10:23:44;;;;;;;;;;;22.60;47.40;;;;;;5034078;28;20644;-57
2021/11/26 10:26:15;;;;;;;4.63;2.72;;;22.60;46.80;;;;;;5032238;28;19916;-61
2021/11/26 10:28:44;;;;;;;3.97;2.63;;;22.60;46.80;;;;;;5033342;28;20088;-60
2021/11/26 10:31:37;;;;;;;;;;;22.60;46.90;;;;;;5035874;28;20047;-59
2021/11/26 10:34:06;;;;;;;3.63;2.60;;;22.60;46.90;;;;;;5032527;28;20411;-60
2021/11/26 10:36:45;;;;;;;2.95;2.30;;;22.60;46.90;;;;;;5032236;28;20033;-60
2021/11/26 10:39:16;;;;;;;;;;;22.50;46.90;;;;;;5033377;28;20037;-61
2021/11/26 10:41:50;;;;;;;5.40;4.38;;;22.50;46.80;;;;;;5026422;28;20481;-60
2021/11/26 10:44:18;;;;;;;12.25;8.38;;;22.50;45.10;;;;;;5034841;28;20116;-61
2021/11/26 10:47:09;;;;;;;11.43;9.23;;;22.50;42.90;;;;;;5033705;28;20071;-60
2021/11/26 10:49:49;;;;;;;10.50;8.90;;;22.40;41.70;;;;;;5032873;28;20029;-60
2021/11/26 10:57:55;;;;;;;9.60;7.60;;;22.30;42.40;;;;;;5031106;28;20114;-60
2021/11/26 11:00:22;;;;;;;8.73;6.85;;;22.30;43.30;;;;;;5031922;28;20661;-60
2021/11/26 11:02:53;;;;;;;9.60;6.65;;;22.20;42.70;;;;;;5032856;28;20025;-60
2021/11/26 11:05:27;;;;;;;8.00;6.38;;;22.20;43.00;;;;;;5026679;28;20021;-60
2021/11/26 11:07:53;;;;;;;8.68;6.25;;;22.20;43.10;;;;;;5031395;28;20029;-58
2021/11/26 11:10:45;;;;;;;8.18;6.03;;;22.20;43.50;;;;;;5022725;28;20740;-57
2021/11/26 11:13:38;;;;;;;7.70;5.47;;;22.20;43.70;;;;;;5035877;28;20732;-55
2021/11/26 11:16:12;;;;;;;7.18;5.63;;;22.20;43.80;;;;;;5028207;28;20117;-58
2021/11/26 11:18:38;;;;;;;7.70;5.40;;;22.20;44.00;;;;;;5033896;28;20028;-58
2021/11/26 11:21:05;;;;;;;6.50;5.30;;;22.10;44.10;;;;;;5033422;28;20092;-57
2021/11/26 11:23:31;;;;;;;6.40;4.97;;;22.10;44.30;;;;;;5035428;28;20039;-58
2021/11/26 11:25:58;;;;;;;6.40;4.63;;;22.10;44.40;;;;;;5031048;28;20119;-57
2021/11/26 11:28:25;;;;;;;4.97;3.85;;;22.10;44.50;;;;;;5028837;28;20044;-58
2021/11/26 11:30:51;;;;;;;6.65;4.55;;;22.00;44.50;;;;;;5024682;28;20362;-58
2021/11/26 11:33:18;;;;;;;4.90;3.78;;;22.00;45.20;;;;;;5029140;28;20029;-58
2021/11/26 11:35:47;;;;;;;4.90;4.00;;;22.00;44.80;;;;;;5028895;28;20055;-58
2021/11/26 11:38:14;;;;;;;6.13;4.50;;;22.00;45.00;;;;;;5032111;28;20070;-57
2021/11/26 11:40:44;;;;;;;5.10;3.92;;;22.00;45.00;;;;;;5026196;28;20029;-58
2021/11/26 11:43:12;;;;;;;5.53;4.40;;;21.90;45.10;;;;;;5032805;28;20124;-55
2021/11/26 11:45:40;;;;;;;5.30;3.83;;;21.90;45.20;;;;;;5031062;28;20488;-58
2021/11/26 11:48:06;;;;;;;5.50;4.07;;;21.90;45.30;;;;;;5031988;28;20037;-58
2021/11/26 11:50:41;;;;;;;6.03;4.22;;;21.90;45.30;;;;;;5029570;28;20029;-54
2021/11/26 11:53:06;;;;;;;5.85;3.80;;;21.80;45.40;;;;;;5030970;28;20696;-58
2021/11/26 11:55:38;;;;;;;4.90;3.88;;;21.80;45.40;;;;;;5030629;28;20032;-58
2021/11/26 11:58:20;;;;;;;5.10;3.65;;;21.80;45.50;;;;;;5029715;28;20396;-58
2021/11/26 12:00:48;;;;;;;5.50;3.30;;;21.80;45.50;;;;;;5028506;28;20034;-59
2021/11/26 12:03:18;;;;;;;5.15;3.80;;;21.80;45.60;;;;;;5028333;28;20429;-55
2021/11/26 12:05:59;;;;;;;5.13;3.80;;;21.70;45.70;;;;;;5030414;28;20097;-58
2021/11/26 12:08:25;;;;;;;5.22;3.90;;;21.70;45.70;;;;;;5034666;28;20504;-58
2021/11/26 12:10:59;;;;;;;4.50;3.35;;;21.70;46.30;;;;;;5029380;28;20024;-60
2021/11/26 12:13:31;;;;;;;5.78;3.80;;;21.70;45.80;;;;;;5032403;28;20036;-56
2021/11/26 12:16:10;;;;;;;5.00;3.28;;;21.70;45.90;;;;;;5033074;28;20025;-58
2021/11/26 12:18:40;;;;;;;4.38;3.28;;;21.70;46.00;;;;;;5032691;28;20115;-57
2021/11/26 12:21:06;;;;;;;4.18;3.50;;;21.60;46.00;;;;;;5035424;28;20029;-59
2021/11/26 12:23:38;;;;;;;4.57;3.50;;;21.60;46.10;;;;;;5036132;28;20128;-58
2021/11/26 12:28:56;;;;;;;4.88;3.30;;;21.60;46.20;;;;;;5034585;28;20036;-56
2021/11/26 12:31:32;;;;;;;5.53;3.25;;;21.50;46.20;;;;;;5036413;28;20094;-56
2021/11/26 12:34:01;;;;;;;4.18;3.13;;;21.50;46.30;;;;;;5032647;28;20380;-58
2021/11/26 12:36:51;;;;;;;5.90;3.25;;;21.50;46.40;;;;;;5031290;28;20029;-57
2021/11/26 12:39:22;;;;;;;4.70;3.40;;;21.50;46.50;;;;;;5035385;28;20040;-58
2021/11/26 12:41:53;;;;;;;4.40;3.17;;;21.50;46.50;;;;;;5027671;28;20050;-59
2021/11/26 12:44:24;;;;;;;5.22;3.28;;;21.50;46.60;;;;;;5034219;28;20043;-59
2021/11/26 12:46:59;;;;;;;4.78;3.20;;;21.50;46.60;;;;;;5040975;28;20163;-57
2021/11/26 12:52:00;;;;;;;4.07;2.78;;;21.40;46.70;;;;;;5031741;28;20033;-58
2021/11/26 12:54:47;;;;;;;3.88;3.00;;;21.40;46.80;;;;;;5030439;28;20021;-59
2021/11/26 12:57:27;;;;;;;4.22;2.90;;;21.40;47.40;;;;;;5040536;28;20021;-57
2021/11/26 13:00:00;;;;;;;4.65;2.90;;;21.40;47.00;;;;;;5033464;28;20072;-58
2021/11/26 13:02:27;;;;;;;4.85;2.80;;;21.30;47.00;;;;;;5032194;28;20034;-58